sensor_id;sensor_type;location;lat;lon;timestamp;temperature;humidity
11617;DHT22;5864;52.998;9.068;2023-02-01T00:01:06;5.40;99.90
11617;DHT22;5864;52.998;9.068;2023-02-01T00:03:33;5.40;99.90
11617;DHT22;5864;52.998;9.068;2023-02-01T00:06:01;5.40;99.90
11617;DHT22;5864;52.998;9.068;2023-02-01T00:08:29;5.40;99.90
11617;DHT22;5864;52.998;9.068;2023-02-01T00:11:00;5.40;99.90
11617;DHT22;5864;52.998;9.068;2023-02-01T00:13:29;5.50;99.90
11617;DHT22;5864;52.998;9.068;2023-02-01T00:16:04;5.50;99.90
11617;DHT22;5864;52.998;9.068;2023-02-01T00:18:32;5.50;99.90
11617;DHT22;5864;52.998;9.068;2023-02-01T00:21:00;5.50;99.90
11617;DHT22;5864;52.998;9.068;2023-02-01T00:23:27;5.50;99.90
11617;DHT22;5864;52.998;9.068;2023-02-01T00:25:55;5.50;99.90
11617;DHT22;5864;52.998;9.068;2023-02-01T00:28:26;5.50;99.90
11617;DHT22;5864;52.998;9.068;2023-02-01T00:30:57;5.50;99.90
11617;DHT22;5864;52.998;9.068;2023-02-01T00:33:27;5.50;99.90
11617;DHT22;5864;52.998;9.068;2023-02-01T00:35:57;6.00;99.90
11617;DHT22;5864;52.998;9.068;2023-02-01T00:38:25;5.50;99.90
11617;DHT22;5864;52.998;9.068;2023-02-01T00:40:54;5.50;99.90
11617;DHT22;5864;52.998;9.068;2023-02-01T00:51:30;5.40;99.90
11617;DHT22;5864;52.998;9.068;2023-02-01T00:53:58;5.40;99.90
11617;DHT22;5864;52.998;9.068;2023-02-01T00:56:27;5.40;99.90
11617;DHT22;5864;52.998;9.068;2023-02-01T00:58:54;5.40;99.90
11617;DHT22;5864;52.998;9.068;2023-02-01T01:01:24;5.50;99.90
11617;DHT22;5864;52.998;9.068;2023-02-01T01:03:54;5.50;99.90
11617;DHT22;5864;52.998;9.068;2023-02-01T01:06:24;5.50;99.90
11617;DHT22;5864;52.998;9.068;2023-02-01T01:08:55;5.50;99.90
11617;DHT22;5864;52.998;9.068;2023-02-01T01:11:25;5.50;99.90
11617;DHT22;5864;52.998;9.068;2023-02-01T01:13:55;5.50;99.90
11617;DHT22;5864;52.998;9.068;2023-02-01T01:16:25;5.50;99.90
11617;DHT22;5864;52.998;9.068;2023-02-01T01:18:53;5.50;99.90
11617;DHT22;5864;52.998;9.068;2023-02-01T01:21:20;5.50;99.90
11617;DHT22;5864;52.998;9.068;2023-02-01T01:23:48;5.50;99.90
11617;DHT22;5864;52.998;9.068;2023-02-01T01:26:18;5.50;99.90
11617;DHT22;5864;52.998;9.068;2023-02-01T01:28:46;5.50;99.90
11617;DHT22;5864;52.998;9.068;2023-02-01T01:31:15;5.50;99.90
11617;DHT22;5864;52.998;9.068;2023-02-01T01:33:43;5.60;99.90
11617;DHT22;5864;52.998;9.068;2023-02-01T01:36:11;5.60;99.90
11617;DHT22;5864;52.998;9.068;2023-02-01T01:38:39;5.60;99.90
11617;DHT22;5864;52.998;9.068;2023-02-01T01:41:08;5.60;99.90
11617;DHT22;5864;52.998;9.068;2023-02-01T01:43:47;5.60;99.90
11617;DHT22;5864;52.998;9.068;2023-02-01T01:46:16;5.60;99.90
11617;DHT22;5864;52.998;9.068;2023-02-01T01:48:45;5.60;99.90
11617;DHT22;5864;52.998;9.068;2023-02-01T01:51:16;5.60;99.90
11617;DHT22;5864;52.998;9.068;2023-02-01T01:53:49;5.60;99.90
11617;DHT22;5864;52.998;9.068;2023-02-01T01:56:17;5.60;99.90
11617;DHT22;5864;52.998;9.068;2023-02-01T01:58:46;5.60;99.90
11617;DHT22;5864;52.998;9.068;2023-02-01T02:01:13;5.60;99.90
11617;DHT22;5864;52.998;9.068;2023-02-01T02:03:43;5.60;99.90
11617;DHT22;5864;52.998;9.068;2023-02-01T02:06:15;5.60;99.90
11617;DHT22;5864;52.998;9.068;2023-02-01T02:08:43;5.60;99.90
11617;DHT22;5864;52.998;9.068;2023-02-01T02:11:12;5.60;99.90
11617;DHT22;5864;52.998;9.068;2023-02-01T02:13:44;5.60;99.90
11617;DHT22;5864;52.998;9.068;2023-02-01T02:19:30;5.50;99.90
11617;DHT22;5864;52.998;9.068;2023-02-01T02:22:15;5.60;99.90
11617;DHT22;5864;52.998;9.068;2023-02-01T02:25:19;5.50;99.90
11617;DHT22;5864;52.998;9.068;2023-02-01T02:27:52;5.60;99.90
11617;DHT22;5864;52.998;9.068;2023-02-01T02:30:40;5.50;99.90
11617;DHT22;5864;52.998;9.068;2023-02-01T02:33:48;5.50;99.90
11617;DHT22;5864;52.998;9.068;2023-02-01T02:36:29;5.50;99.90
11617;DHT22;5864;52.998;9.068;2023-02-01T02:39:05;5.40;99.90
11617;DHT22;5864;52.998;9.068;2023-02-01T02:41:39;5.40;99.90
11617;DHT22;5864;52.998;9.068;2023-02-01T02:44:33;5.40;99.90
11617;DHT22;5864;52.998;9.068;2023-02-01T02:47:24;5.40;99.90
11617;DHT22;5864;52.998;9.068;2023-02-01T02:50:02;4.00;99.90
11617;DHT22;5864;52.998;9.068;2023-02-01T02:52:52;5.40;99.90
11617;DHT22;5864;52.998;9.068;2023-02-01T02:55:39;5.40;99.90
11617;DHT22;5864;52.998;9.068;2023-02-01T02:58:07;5.40;99.90
11617;DHT22;5864;52.998;9.068;2023-02-01T03:00:53;5.40;99.90
11617;DHT22;5864;52.998;9.068;2023-02-01T03:03:39;5.40;99.90
11617;DHT22;5864;52.998;9.068;2023-02-01T03:06:25;5.40;99.90
11617;DHT22;5864;52.998;9.068;2023-02-01T03:08:55;5.40;99.90
11617;DHT22;5864;52.998;9.068;2023-02-01T03:11:24;5.40;99.90
11617;DHT22;5864;52.998;9.068;2023-02-01T03:14:15;5.30;99.90
11617;DHT22;5864;52.998;9.068;2023-02-01T03:16:48;5.30;99.90
11617;DHT22;5864;52.998;9.068;2023-02-01T03:19:21;5.30;99.90
11617;DHT22;5864;52.998;9.068;2023-02-01T03:21:52;5.30;99.90
11617;DHT22;5864;52.998;9.068;2023-02-01T03:24:23;5.40;99.90
11617;DHT22;5864;52.998;9.068;2023-02-01T03:27:03;3.40;99.90
11617;DHT22;5864;52.998;9.068;2023-02-01T03:29:38;5.40;99.90
11617;DHT22;5864;52.998;9.068;2023-02-01T03:32:08;5.40;99.90
11617;DHT22;5864;52.998;9.068;2023-02-01T03:34:36;5.40;99.90
11617;DHT22;5864;52.998;9.068;2023-02-01T03:37:08;5.40;99.90
11617;DHT22;5864;52.998;9.068;2023-02-01T03:39:38;5.40;99.90
11617;DHT22;5864;52.998;9.068;2023-02-01T03:42:10;5.40;99.90
11617;DHT22;5864;52.998;9.068;2023-02-01T03:44:43;5.40;99.90
11617;DHT22;5864;52.998;9.068;2023-02-01T03:47:16;5.40;99.90
11617;DHT22;5864;52.998;9.068;2023-02-01T03:49:49;5.40;99.90
11617;DHT22;5864;52.998;9.068;2023-02-01T03:52:23;5.40;99.90
11617;DHT22;5864;52.998;9.068;2023-02-01T03:54:52;5.40;99.90
11617;DHT22;5864;52.998;9.068;2023-02-01T03:57:25;5.40;99.90
11617;DHT22;5864;52.998;9.068;2023-02-01T03:59:54;5.40;99.90
11617;DHT22;5864;52.998;9.068;2023-02-01T04:02:30;5.30;99.90
11617;DHT22;5864;52.998;9.068;2023-02-01T04:04:58;5.30;99.90
11617;DHT22;5864;52.998;9.068;2023-02-01T04:07:27;5.20;99.90
11617;DHT22;5864;52.998;9.068;2023-02-01T04:09:54;5.10;99.90
11617;DHT22;5864;52.998;9.068;2023-02-01T04:12:21;5.10;99.90
11617;DHT22;5864;52.998;9.068;2023-02-01T04:14:49;5.10;99.90
11617;DHT22;5864;52.998;9.068;2023-02-01T04:17:16;5.00;99.90
11617;DHT22;5864;52.998;9.068;2023-02-01T04:19:44;5.10;99.90
11617;DHT22;5864;52.998;9.068;2023-02-01T04:22:11;5.00;99.90
11617;DHT22;5864;52.998;9.068;2023-02-01T04:24:40;5.00;99.90
11617;DHT22;5864;52.998;9.068;2023-02-01T04:27:08;5.00;99.90
11617;DHT22;5864;52.998;9.068;2023-02-01T04:29:35;5.00;99.90
11617;DHT22;5864;52.998;9.068;2023-02-01T04:32:03;4.90;99.90
11617;DHT22;5864;52.998;9.068;2023-02-01T04:34:31;4.90;99.90
11617;DHT22;5864;52.998;9.068;2023-02-01T04:36:59;5.00;99.90
11617;DHT22;5864;52.998;9.068;2023-02-01T04:39:27;4.90;99.90
11617;DHT22;5864;52.998;9.068;2023-02-01T04:41:56;5.00;99.90
11617;DHT22;5864;52.998;9.068;2023-02-01T04:44:23;4.90;99.90
11617;DHT22;5864;52.998;9.068;2023-02-01T04:46:51;4.90;99.90
11617;DHT22;5864;52.998;9.068;2023-02-01T04:49:18;4.90;99.90
11617;DHT22;5864;52.998;9.068;2023-02-01T04:51:47;4.90;99.90
11617;DHT22;5864;52.998;9.068;2023-02-01T04:54:15;4.90;99.90
11617;DHT22;5864;52.998;9.068;2023-02-01T04:56:43;4.90;99.90
11617;DHT22;5864;52.998;9.068;2023-02-01T04:59:12;4.90;99.90
11617;DHT22;5864;52.998;9.068;2023-02-01T05:01:40;4.90;99.90
11617;DHT22;5864;52.998;9.068;2023-02-01T05:04:10;4.90;99.90
11617;DHT22;5864;52.998;9.068;2023-02-01T05:06:37;5.00;99.90
11617;DHT22;5864;52.998;9.068;2023-02-01T05:09:05;5.00;99.90
11617;DHT22;5864;52.998;9.068;2023-02-01T05:11:32;5.00;99.90
11617;DHT22;5864;52.998;9.068;2023-02-01T05:14:18;5.00;99.90
11617;DHT22;5864;52.998;9.068;2023-02-01T05:16:46;5.10;99.90
11617;DHT22;5864;52.998;9.068;2023-02-01T05:19:14;5.10;99.90
11617;DHT22;5864;52.998;9.068;2023-02-01T05:21:42;5.10;99.90
11617;DHT22;5864;52.998;9.068;2023-02-01T05:24:09;5.10;99.90
11617;DHT22;5864;52.998;9.068;2023-02-01T05:26:39;5.00;99.90
11617;DHT22;5864;52.998;9.068;2023-02-01T05:29:08;5.00;99.90
11617;DHT22;5864;52.998;9.068;2023-02-01T05:31:37;5.00;99.90
11617;DHT22;5864;52.998;9.068;2023-02-01T05:34:05;5.10;99.90
11617;DHT22;5864;52.998;9.068;2023-02-01T05:36:33;5.10;99.90
11617;DHT22;5864;52.998;9.068;2023-02-01T05:39:00;5.10;99.90
11617;DHT22;5864;52.998;9.068;2023-02-01T05:41:28;5.10;99.90
11617;DHT22;5864;52.998;9.068;2023-02-01T05:43:55;5.20;99.90
11617;DHT22;5864;52.998;9.068;2023-02-01T05:46:23;5.20;99.90
11617;DHT22;5864;52.998;9.068;2023-02-01T05:48:52;5.20;99.90
11617;DHT22;5864;52.998;9.068;2023-02-01T05:51:19;5.10;99.90
11617;DHT22;5864;52.998;9.068;2023-02-01T05:53:47;5.10;99.90
11617;DHT22;5864;52.998;9.068;2023-02-01T05:56:14;5.10;99.90
11617;DHT22;5864;52.998;9.068;2023-02-01T05:58:41;5.10;99.90
11617;DHT22;5864;52.998;9.068;2023-02-01T06:01:09;5.10;99.90
11617;DHT22;5864;52.998;9.068;2023-02-01T06:03:36;5.10;99.90
11617;DHT22;5864;52.998;9.068;2023-02-01T06:06:06;5.10;99.90
11617;DHT22;5864;52.998;9.068;2023-02-01T06:08:33;5.10;99.90
11617;DHT22;5864;52.998;9.068;2023-02-01T06:11:02;5.10;99.90
11617;DHT22;5864;52.998;9.068;2023-02-01T06:13:30;5.10;99.90
11617;DHT22;5864;52.998;9.068;2023-02-01T06:15:58;5.10;99.90
11617;DHT22;5864;52.998;9.068;2023-02-01T06:18:25;5.10;99.90
11617;DHT22;5864;52.998;9.068;2023-02-01T06:20:53;5.10;99.90
11617;DHT22;5864;52.998;9.068;2023-02-01T06:23:23;5.10;99.90
11617;DHT22;5864;52.998;9.068;2023-02-01T06:25:51;5.00;99.90
11617;DHT22;5864;52.998;9.068;2023-02-01T06:28:19;5.00;99.90
11617;DHT22;5864;52.998;9.068;2023-02-01T06:30:46;5.00;99.90
11617;DHT22;5864;52.998;9.068;2023-02-01T06:33:14;5.00;99.90
11617;DHT22;5864;52.998;9.068;2023-02-01T06:35:42;5.00;99.90
11617;DHT22;5864;52.998;9.068;2023-02-01T06:38:10;5.00;99.90
11617;DHT22;5864;52.998;9.068;2023-02-01T06:40:40;5.00;99.90
11617;DHT22;5864;52.998;9.068;2023-02-01T06:43:08;5.00;99.90
11617;DHT22;5864;52.998;9.068;2023-02-01T06:45:36;5.00;99.90
11617;DHT22;5864;52.998;9.068;2023-02-01T06:48:04;5.00;99.90
11617;DHT22;5864;52.998;9.068;2023-02-01T06:50:33;5.00;99.90
11617;DHT22;5864;52.998;9.068;2023-02-01T06:53:01;4.90;99.90
11617;DHT22;5864;52.998;9.068;2023-02-01T06:55:28;4.90;99.90
11617;DHT22;5864;52.998;9.068;2023-02-01T06:57:57;4.90;99.90
11617;DHT22;5864;52.998;9.068;2023-02-01T07:00:25;4.90;99.90
11617;DHT22;5864;52.998;9.068;2023-02-01T07:02:52;5.00;99.90
11617;DHT22;5864;52.998;9.068;2023-02-01T07:05:20;4.90;99.90
11617;DHT22;5864;52.998;9.068;2023-02-01T07:07:48;4.90;99.90
11617;DHT22;5864;52.998;9.068;2023-02-01T07:10:16;4.90;99.90
11617;DHT22;5864;52.998;9.068;2023-02-01T07:12:43;5.00;99.90
11617;DHT22;5864;52.998;9.068;2023-02-01T07:15:13;5.10;99.90
11617;DHT22;5864;52.998;9.068;2023-02-01T07:17:40;5.10;99.90
11617;DHT22;5864;52.998;9.068;2023-02-01T07:20:09;5.10;99.90
11617;DHT22;5864;52.998;9.068;2023-02-01T07:22:37;5.10;99.90
11617;DHT22;5864;52.998;9.068;2023-02-01T07:25:05;5.10;99.90
11617;DHT22;5864;52.998;9.068;2023-02-01T07:27:34;5.00;99.90
11617;DHT22;5864;52.998;9.068;2023-02-01T07:30:01;5.00;99.90
11617;DHT22;5864;52.998;9.068;2023-02-01T07:32:30;4.80;99.90
11617;DHT22;5864;52.998;9.068;2023-02-01T07:34:58;4.60;99.90
11617;DHT22;5864;52.998;9.068;2023-02-01T07:37:26;4.60;99.90
11617;DHT22;5864;52.998;9.068;2023-02-01T07:39:56;4.60;99.90
11617;DHT22;5864;52.998;9.068;2023-02-01T07:42:24;4.70;99.90
11617;DHT22;5864;52.998;9.068;2023-02-01T07:44:51;4.80;99.90
11617;DHT22;5864;52.998;9.068;2023-02-01T07:47:18;4.80;99.90
11617;DHT22;5864;52.998;9.068;2023-02-01T07:49:47;4.80;99.90
11617;DHT22;5864;52.998;9.068;2023-02-01T07:52:15;4.80;99.90
11617;DHT22;5864;52.998;9.068;2023-02-01T07:54:42;4.90;99.90
11617;DHT22;5864;52.998;9.068;2023-02-01T07:57:10;5.00;99.90
11617;DHT22;5864;52.998;9.068;2023-02-01T07:59:39;5.10;99.90
11617;DHT22;5864;52.998;9.068;2023-02-01T08:02:27;5.10;99.90
11617;DHT22;5864;52.998;9.068;2023-02-01T08:04:55;5.10;99.90
11617;DHT22;5864;52.998;9.068;2023-02-01T08:07:23;5.10;99.90
11617;DHT22;5864;52.998;9.068;2023-02-01T08:09:50;5.20;99.90
11617;DHT22;5864;52.998;9.068;2023-02-01T08:12:18;5.30;99.90
11617;DHT22;5864;52.998;9.068;2023-02-01T08:14:45;5.30;99.90
11617;DHT22;5864;52.998;9.068;2023-02-01T08:17:13;5.30;99.90
11617;DHT22;5864;52.998;9.068;2023-02-01T08:19:40;5.30;99.90
11617;DHT22;5864;52.998;9.068;2023-02-01T08:22:09;5.40;99.90
11617;DHT22;5864;52.998;9.068;2023-02-01T08:24:36;5.40;99.90
11617;DHT22;5864;52.998;9.068;2023-02-01T08:27:06;5.50;99.90
11617;DHT22;5864;52.998;9.068;2023-02-01T08:29:33;5.50;99.90
11617;DHT22;5864;52.998;9.068;2023-02-01T08:32:00;5.50;99.90
11617;DHT22;5864;52.998;9.068;2023-02-01T08:34:28;5.50;99.90
11617;DHT22;5864;52.998;9.068;2023-02-01T08:36:56;5.50;99.90
11617;DHT22;5864;52.998;9.068;2023-02-01T08:39:28;5.50;99.90
11617;DHT22;5864;52.998;9.068;2023-02-01T08:41:55;5.60;99.90
11617;DHT22;5864;52.998;9.068;2023-02-01T08:44:40;5.90;99.90
11617;DHT22;5864;52.998;9.068;2023-02-01T08:47:08;6.50;99.90
11617;DHT22;5864;52.998;9.068;2023-02-01T08:49:37;7.40;99.90
11617;DHT22;5864;52.998;9.068;2023-02-01T08:52:07;7.50;99.90
11617;DHT22;5864;52.998;9.068;2023-02-01T08:54:36;7.90;99.90
11617;DHT22;5864;52.998;9.068;2023-02-01T08:57:05;8.60;99.90
11617;DHT22;5864;52.998;9.068;2023-02-01T08:59:32;9.40;99.90
11617;DHT22;5864;52.998;9.068;2023-02-01T09:02:00;9.70;99.90
11617;DHT22;5864;52.998;9.068;2023-02-01T09:04:27;9.40;99.90
11617;DHT22;5864;52.998;9.068;2023-02-01T09:06:55;8.70;99.90
11617;DHT22;5864;52.998;9.068;2023-02-01T09:09:23;8.20;99.90
11617;DHT22;5864;52.998;9.068;2023-02-01T09:11:52;7.70;99.90
11617;DHT22;5864;52.998;9.068;2023-02-01T09:14:19;7.40;99.90
11617;DHT22;5864;52.998;9.068;2023-02-01T09:16:46;7.20;99.90
11617;DHT22;5864;52.998;9.068;2023-02-01T09:19:14;6.90;99.90
11617;DHT22;5864;52.998;9.068;2023-02-01T09:21:42;6.80;99.90
11617;DHT22;5864;52.998;9.068;2023-02-01T09:24:10;6.70;99.90
11617;DHT22;5864;52.998;9.068;2023-02-01T09:26:37;6.80;99.90
11617;DHT22;5864;52.998;9.068;2023-02-01T09:29:06;6.80;99.90
11617;DHT22;5864;52.998;9.068;2023-02-01T09:31:37;6.90;99.90
11617;DHT22;5864;52.998;9.068;2023-02-01T09:34:05;6.90;99.90
11617;DHT22;5864;52.998;9.068;2023-02-01T09:36:33;6.80;99.90
11617;DHT22;5864;52.998;9.068;2023-02-01T09:39:01;6.80;99.90
11617;DHT22;5864;52.998;9.068;2023-02-01T09:41:46;6.80;99.90
11617;DHT22;5864;52.998;9.068;2023-02-01T09:44:30;6.70;99.90
11617;DHT22;5864;52.998;9.068;2023-02-01T09:47:03;6.70;99.90
11617;DHT22;5864;52.998;9.068;2023-02-01T09:49:32;6.70;99.90
11617;DHT22;5864;52.998;9.068;2023-02-01T09:52:02;6.60;99.90
11617;DHT22;5864;52.998;9.068;2023-02-01T09:54:40;6.50;99.90
11617;DHT22;5864;52.998;9.068;2023-02-01T09:57:14;6.50;99.90
11617;DHT22;5864;52.998;9.068;2023-02-01T09:59:49;6.50;99.90
11617;DHT22;5864;52.998;9.068;2023-02-01T10:02:20;6.60;99.90
11617;DHT22;5864;52.998;9.068;2023-02-01T10:04:49;6.50;99.90
11617;DHT22;5864;52.998;9.068;2023-02-01T10:07:24;6.50;99.90
11617;DHT22;5864;52.998;9.068;2023-02-01T10:10:00;6.50;99.90
11617;DHT22;5864;52.998;9.068;2023-02-01T10:15:34;6.50;99.90
11617;DHT22;5864;52.998;9.068;2023-02-01T10:18:18;6.50;99.90
11617;DHT22;5864;52.998;9.068;2023-02-01T10:20:57;6.50;99.90
11617;DHT22;5864;52.998;9.068;2023-02-01T10:23:57;6.50;99.90
11617;DHT22;5864;52.998;9.068;2023-02-01T10:26:33;6.50;99.90
11617;DHT22;5864;52.998;9.068;2023-02-01T10:29:04;6.50;99.90
11617;DHT22;5864;52.998;9.068;2023-02-01T10:31:40;6.50;99.90
11617;DHT22;5864;52.998;9.068;2023-02-01T10:34:17;6.50;99.90
11617;DHT22;5864;52.998;9.068;2023-02-01T10:36:52;6.50;99.90
11617;DHT22;5864;52.998;9.068;2023-02-01T10:39:20;6.60;99.90
11617;DHT22;5864;52.998;9.068;2023-02-01T10:41:48;6.50;99.90
11617;DHT22;5864;52.998;9.068;2023-02-01T10:44:19;6.50;99.90
11617;DHT22;5864;52.998;9.068;2023-02-01T10:46:50;6.50;99.90
11617;DHT22;5864;52.998;9.068;2023-02-01T10:49:19;6.50;99.90
11617;DHT22;5864;52.998;9.068;2023-02-01T10:51:50;6.50;99.90
11617;DHT22;5864;52.998;9.068;2023-02-01T10:54:21;6.40;99.90
11617;DHT22;5864;52.998;9.068;2023-02-01T10:56:49;6.40;99.90
11617;DHT22;5864;52.998;9.068;2023-02-01T10:59:23;6.40;99.90
11617;DHT22;5864;52.998;9.068;2023-02-01T11:02:01;6.30;99.90
11617;DHT22;5864;52.998;9.068;2023-02-01T11:04:35;6.30;99.90
11617;DHT22;5864;52.998;9.068;2023-02-01T11:07:08;6.20;99.90
11617;DHT22;5864;52.998;9.068;2023-02-01T11:09:48;6.20;99.90
11617;DHT22;5864;52.998;9.068;2023-02-01T11:12:31;6.20;99.90
11617;DHT22;5864;52.998;9.068;2023-02-01T11:15:14;6.20;99.90
11617;DHT22;5864;52.998;9.068;2023-02-01T11:17:45;6.20;99.90
11617;DHT22;5864;52.998;9.068;2023-02-01T11:20:15;6.20;99.90
11617;DHT22;5864;52.998;9.068;2023-02-01T11:22:46;6.10;99.90
11617;DHT22;5864;52.998;9.068;2023-02-01T11:25:16;6.20;99.90
11617;DHT22;5864;52.998;9.068;2023-02-01T11:27:45;6.10;99.90
11617;DHT22;5864;52.998;9.068;2023-02-01T11:30:16;6.10;99.90
11617;DHT22;5864;52.998;9.068;2023-02-01T11:32:47;6.10;99.90
11617;DHT22;5864;52.998;9.068;2023-02-01T11:35:18;6.10;99.90
11617;DHT22;5864;52.998;9.068;2023-02-01T11:37:52;6.00;99.90
11617;DHT22;5864;52.998;9.068;2023-02-01T11:40:27;6.00;99.90
11617;DHT22;5864;52.998;9.068;2023-02-01T11:42:56;6.00;99.90
11617;DHT22;5864;52.998;9.068;2023-02-01T11:45:28;6.00;99.90
11617;DHT22;5864;52.998;9.068;2023-02-01T11:47:58;6.00;99.90
11617;DHT22;5864;52.998;9.068;2023-02-01T11:50:33;6.00;99.90
11617;DHT22;5864;52.998;9.068;2023-02-01T11:53:22;5.90;99.90
11617;DHT22;5864;52.998;9.068;2023-02-01T11:55:56;5.80;99.90
11617;DHT22;5864;52.998;9.068;2023-02-01T11:58:38;5.80;99.90
11617;DHT22;5864;52.998;9.068;2023-02-01T12:07:20;5.60;99.90
11617;DHT22;5864;52.998;9.068;2023-02-01T12:10:04;5.60;99.90
11617;DHT22;5864;52.998;9.068;2023-02-01T12:12:42;5.50;99.90
11617;DHT22;5864;52.998;9.068;2023-02-01T12:15:30;5.50;99.90
11617;DHT22;5864;52.998;9.068;2023-02-01T12:21:21;5.50;99.90
11617;DHT22;5864;52.998;9.068;2023-02-01T12:24:06;6.50;99.90
11617;DHT22;5864;52.998;9.068;2023-02-01T12:26:54;5.50;99.90
11617;DHT22;5864;52.998;9.068;2023-02-01T12:29:41;5.50;99.90
11617;DHT22;5864;52.998;9.068;2023-02-01T12:32:26;5.50;99.90
11617;DHT22;5864;52.998;9.068;2023-02-01T12:38:04;5.30;99.90
11617;DHT22;5864;52.998;9.068;2023-02-01T12:40:50;4.70;99.90
11617;DHT22;5864;52.998;9.068;2023-02-01T12:43:29;4.40;99.90
11617;DHT22;5864;52.998;9.068;2023-02-01T12:46:05;4.20;99.90
11617;DHT22;5864;52.998;9.068;2023-02-01T12:48:37;4.00;99.90
11617;DHT22;5864;52.998;9.068;2023-02-01T12:51:09;4.00;99.90
11617;DHT22;5864;52.998;9.068;2023-02-01T12:53:45;4.00;99.90
11617;DHT22;5864;52.998;9.068;2023-02-01T12:56:20;4.10;99.90
11617;DHT22;5864;52.998;9.068;2023-02-01T12:58:52;4.00;99.90
11617;DHT22;5864;52.998;9.068;2023-02-01T13:01:26;4.00;99.90
11617;DHT22;5864;52.998;9.068;2023-02-01T13:04:01;4.10;99.90
11617;DHT22;5864;52.998;9.068;2023-02-01T13:06:35;4.10;99.90
11617;DHT22;5864;52.998;9.068;2023-02-01T13:09:09;4.20;99.90
11617;DHT22;5864;52.998;9.068;2023-02-01T13:11:40;4.30;99.90
11617;DHT22;5864;52.998;9.068;2023-02-01T13:14:19;4.40;99.90
11617;DHT22;5864;52.998;9.068;2023-02-01T13:16:52;4.50;99.90
11617;DHT22;5864;52.998;9.068;2023-02-01T13:19:24;4.60;99.90
11617;DHT22;5864;52.998;9.068;2023-02-01T13:21:57;4.60;99.90
11617;DHT22;5864;52.998;9.068;2023-02-01T13:24:34;4.70;99.90
11617;DHT22;5864;52.998;9.068;2023-02-01T13:27:08;4.70;99.90
11617;DHT22;5864;52.998;9.068;2023-02-01T13:29:49;4.70;99.90
11617;DHT22;5864;52.998;9.068;2023-02-01T13:35:44;4.60;99.90
11617;DHT22;5864;52.998;9.068;2023-02-01T13:38:38;5.20;99.90
11617;DHT22;5864;52.998;9.068;2023-02-01T13:41:22;4.70;99.90
11617;DHT22;5864;52.998;9.068;2023-02-01T13:43:56;4.70;99.90
11617;DHT22;5864;52.998;9.068;2023-02-01T13:46:27;4.80;99.90
11617;DHT22;5864;52.998;9.068;2023-02-01T13:48:56;4.90;99.90
11617;DHT22;5864;52.998;9.068;2023-02-01T13:51:34;5.10;99.90
11617;DHT22;5864;52.998;9.068;2023-02-01T13:54:04;5.20;99.90
11617;DHT22;5864;52.998;9.068;2023-02-01T13:56:40;5.30;99.90
11617;DHT22;5864;52.998;9.068;2023-02-01T14:06:16;5.80;99.90
11617;DHT22;5864;52.998;9.068;2023-02-01T14:08:46;5.80;99.90
11617;DHT22;5864;52.998;9.068;2023-02-01T14:11:35;5.90;99.90
11617;DHT22;5864;52.998;9.068;2023-02-01T14:17:39;5.80;99.90
11617;DHT22;5864;52.998;9.068;2023-02-01T14:23:15;5.90;99.90
11617;DHT22;5864;52.998;9.068;2023-02-01T14:25:44;6.00;99.90
11617;DHT22;5864;52.998;9.068;2023-02-01T14:28:23;6.00;99.90
11617;DHT22;5864;52.998;9.068;2023-02-01T14:30:53;6.00;99.90
11617;DHT22;5864;52.998;9.068;2023-02-01T14:33:22;6.00;99.90
11617;DHT22;5864;52.998;9.068;2023-02-01T14:36:05;6.00;99.90
11617;DHT22;5864;52.998;9.068;2023-02-01T14:38:37;6.00;99.90
11617;DHT22;5864;52.998;9.068;2023-02-01T14:41:26;5.90;99.90
11617;DHT22;5864;52.998;9.068;2023-02-01T14:44:21;5.90;99.90
11617;DHT22;5864;52.998;9.068;2023-02-01T14:52:47;5.90;99.90
11617;DHT22;5864;52.998;9.068;2023-02-01T14:55:21;5.90;99.90
11617;DHT22;5864;52.998;9.068;2023-02-01T14:57:54;5.80;99.90
11617;DHT22;5864;52.998;9.068;2023-02-01T15:00:24;5.90;99.90
11617;DHT22;5864;52.998;9.068;2023-02-01T15:02:54;5.90;99.90
11617;DHT22;5864;52.998;9.068;2023-02-01T15:05:31;4.90;99.90
11617;DHT22;5864;52.998;9.068;2023-02-01T15:08:13;6.00;99.90
11617;DHT22;5864;52.998;9.068;2023-02-01T15:10:48;6.00;99.90
11617;DHT22;5864;52.998;9.068;2023-02-01T15:13:22;6.00;99.90
11617;DHT22;5864;52.998;9.068;2023-02-01T15:16:04;6.00;99.90
11617;DHT22;5864;52.998;9.068;2023-02-01T15:18:32;6.00;99.90
11617;DHT22;5864;52.998;9.068;2023-02-01T15:21:01;5.90;99.90
11617;DHT22;5864;52.998;9.068;2023-02-01T15:23:29;6.00;99.90
11617;DHT22;5864;52.998;9.068;2023-02-01T15:25:58;6.00;99.90
11617;DHT22;5864;52.998;9.068;2023-02-01T15:28:26;5.90;99.90
11617;DHT22;5864;52.998;9.068;2023-02-01T15:30:56;5.90;99.90
11617;DHT22;5864;52.998;9.068;2023-02-01T15:33:24;5.90;99.90
11617;DHT22;5864;52.998;9.068;2023-02-01T15:35:53;6.00;99.90
11617;DHT22;5864;52.998;9.068;2023-02-01T15:38:39;5.90;99.90
11617;DHT22;5864;52.998;9.068;2023-02-01T15:41:10;6.00;99.90
11617;DHT22;5864;52.998;9.068;2023-02-01T15:43:41;6.00;99.90
11617;DHT22;5864;52.998;9.068;2023-02-01T15:46:12;6.00;99.90
11617;DHT22;5864;52.998;9.068;2023-02-01T15:48:48;6.00;99.90
11617;DHT22;5864;52.998;9.068;2023-02-01T15:51:18;6.10;99.90
11617;DHT22;5864;52.998;9.068;2023-02-01T15:53:50;6.20;99.90
11617;DHT22;5864;52.998;9.068;2023-02-01T15:56:24;6.20;99.90
11617;DHT22;5864;52.998;9.068;2023-02-01T15:58:54;6.20;99.90
11617;DHT22;5864;52.998;9.068;2023-02-01T16:01:23;6.20;99.90
11617;DHT22;5864;52.998;9.068;2023-02-01T16:04:03;6.20;99.90
11617;DHT22;5864;52.998;9.068;2023-02-01T16:06:32;6.30;99.90
11617;DHT22;5864;52.998;9.068;2023-02-01T16:09:05;6.20;99.90
11617;DHT22;5864;52.998;9.068;2023-02-01T16:11:46;6.20;99.90
11617;DHT22;5864;52.998;9.068;2023-02-01T16:14:15;6.20;99.90
11617;DHT22;5864;52.998;9.068;2023-02-01T16:16:43;6.20;99.90
11617;DHT22;5864;52.998;9.068;2023-02-01T16:19:10;6.20;99.90
11617;DHT22;5864;52.998;9.068;2023-02-01T16:21:38;6.00;99.90
11617;DHT22;5864;52.998;9.068;2023-02-01T16:24:05;5.50;99.90
11617;DHT22;5864;52.998;9.068;2023-02-01T16:26:34;5.00;99.90
11617;DHT22;5864;52.998;9.068;2023-02-01T16:29:02;5.00;99.90
11617;DHT22;5864;52.998;9.068;2023-02-01T16:31:34;5.00;99.90
11617;DHT22;5864;52.998;9.068;2023-02-01T16:34:03;5.10;99.90
11617;DHT22;5864;52.998;9.068;2023-02-01T16:36:31;5.10;99.90
11617;DHT22;5864;52.998;9.068;2023-02-01T16:38:59;5.10;99.90
11617;DHT22;5864;52.998;9.068;2023-02-01T16:41:29;5.00;99.90
11617;DHT22;5864;52.998;9.068;2023-02-01T16:43:56;5.00;99.90
11617;DHT22;5864;52.998;9.068;2023-02-01T16:46:27;5.00;99.90
11617;DHT22;5864;52.998;9.068;2023-02-01T16:48:58;5.00;99.90
11617;DHT22;5864;52.998;9.068;2023-02-01T16:51:28;5.00;99.90
11617;DHT22;5864;52.998;9.068;2023-02-01T16:53:58;5.10;99.90
11617;DHT22;5864;52.998;9.068;2023-02-01T16:56:30;5.10;99.90
11617;DHT22;5864;52.998;9.068;2023-02-01T16:58:57;5.10;99.90
11617;DHT22;5864;52.998;9.068;2023-02-01T17:01:27;5.10;99.90
11617;DHT22;5864;52.998;9.068;2023-02-01T17:03:54;5.00;99.90
11617;DHT22;5864;52.998;9.068;2023-02-01T17:06:25;4.90;99.90
11617;DHT22;5864;52.998;9.068;2023-02-01T17:08:56;4.90;99.90
11617;DHT22;5864;52.998;9.068;2023-02-01T17:11:25;4.90;99.90
11617;DHT22;5864;52.998;9.068;2023-02-01T17:13:52;4.90;99.90
11617;DHT22;5864;52.998;9.068;2023-02-01T17:16:23;5.00;99.90
11617;DHT22;5864;52.998;9.068;2023-02-01T17:18:56;5.00;99.90
11617;DHT22;5864;52.998;9.068;2023-02-01T17:21:27;5.00;99.90